Stations météo

réclame
Mon MeteoGroup
Sierra De Alfabia, Espagne (8303): Température de l'air & dewpoint: 17.01.2018 08:00:00 - 23.01.2018 08:00:00 (CET)Sierra De Alfabia, Espagne (8303): Vitesse du vent & gusts: 17.01.2018 08:00:00 - 23.01.2018 08:00:00 (CET)Sierra De Alfabia, Espagne (8303): Direction du vent: 17.01.2018 08:00:00 - 23.01.2018 08:00:00 (CET)Sierra De Alfabia, Espagne (8303): Quantités de précipitations: 17.01.2018 08:00:00 - 23.01.2018 08:00:00 (CET)
Date & Time tt [°C] td [°C] ff [km/h] ff [knt] fx [km/h] fx [knt] dd rr [mm]
23.01.2018 08:00:00 8,2 0,6 9 5 17 9 NNE 0,0
23.01.2018 07:00:00 8,4 0,4 9 5 23 13 N -
23.01.2018 06:00:00 8,8 0,4 21 11 27 15 N 0,0
23.01.2018 05:00:00 7,8 0,4 16 9 26 14 N 0,0
23.01.2018 04:00:00 6,9 3,4 22 12 45 24 N 0,0
23.01.2018 03:00:00 6,7 2,9 38 21 54 29 NNW 0,0
23.01.2018 02:00:00 6,9 2,1 43 23 56 30 NNW 0,0
23.01.2018 01:00:00 7,3 1,3 44 24 57 31 NNW -
23.01.2018 00:00:00 7,1 0,4 49 27 74 40 NNW 0,0
22.01.2018 23:00:00 8,8 -2,0 66 35 82 45 NNW 0,0
22.01.2018 22:00:00 8,7 -2,5 59 32 88 47 NNW 0,0
22.01.2018 21:00:00 9,6 -3,0 58 31 76 41 NNW 0,0
22.01.2018 20:00:00 9,4 -2,5 51 28 62 33 NNW 0,0
22.01.2018 19:00:00 9,8 -2,5 37 20 51 27 NNW -
22.01.2018 18:00:00 10,2 -2,2 34 18 46 25 NW 0,0
22.01.2018 17:00:00 10,9 -2,2 26 14 44 24 NNW 0,0
22.01.2018 16:00:00 11,4 -1,4 24 13 39 21 NNW 0,0
22.01.2018 15:00:00 11,9 -1,2 24 13 47 26 NW 0,0
22.01.2018 14:00:00 12,2 0,6 27 15 44 24 NW 0,0
22.01.2018 13:00:00 9,4 1,7 34 18 48 26 NNW -
22.01.2018 12:00:00 7,9 1,9 46 25 75 41 NNW 0,0
22.01.2018 11:00:00 7,6 2,7 65 35 98 53 NNW 0,0
22.01.2018 10:00:00 7,3 3,2 64 35 82 45 NNW 0,0
22.01.2018 09:00:00 6,8 3,0 62 34 98 53 NNW 0,0
22.01.2018 08:00:00 6,6 3,0 78 42 106 57 NNW 0,0
22.01.2018 07:00:00 6,7 2,9 78 42 95 52 NNW -
22.01.2018 06:00:00 6,3 4,1 73 39 95 51 NNW 0,0
22.01.2018 05:00:00 6,5 3,8 77 42 108 58 NNW 0,0
22.01.2018 04:00:00 7,1 3,4 70 38 95 51 NNW 0,0
22.01.2018 03:00:00 7,3 3,9 77 41 98 53 NNW 0,0
22.01.2018 02:00:00 7,5 3,0 69 37 96 52 NNW 0,0
22.01.2018 01:00:00 7,5 3,8 59 32 93 50 NW -
22.01.2018 00:00:00 7,6 3,2 61 33 88 47 NNW 0,0
21.01.2018 23:00:00 8,6 3,2 64 35 84 45 NNW 0,0
21.01.2018 22:00:00 9,1 3,0 50 27 67 36 NNW 0,0
21.01.2018 21:00:00 9,2 3,8 48 26 69 37 NNW 0,0
21.01.2018 20:00:00 9,0 3,8 56 31 73 39 NNW 0,0
21.01.2018 19:00:00 8,6 3,4 42 23 66 36 NNW -
21.01.2018 18:00:00 8,7 3,0 50 27 67 36 NW 0,0
21.01.2018 17:00:00 8,1 3,6 53 28 61 33 NNW 0,0
21.01.2018 16:00:00 8,2 3,4 36 19 56 30 NNW 0,0
21.01.2018 15:00:00 7,3 4,3 47 26 59 32 NNW 0,0
21.01.2018 14:00:00 8,0 4,8 35 19 58 31 NNW 0,0
21.01.2018 13:00:00 7,5 3,9 49 27 61 33 NNW -
21.01.2018 12:00:00 7,1 4,8 48 26 61 33 NNW 0,0
21.01.2018 11:00:00 7,1 5,3 43 23 60 33 NNW 0,0
21.01.2018 10:00:00 6,8 5,0 40 22 69 37 NW 0,0
21.01.2018 09:00:00 6,6 4,8 60 32 85 46 NW 0,0
21.01.2018 08:00:00 6,7 4,5 59 32 84 46 NW 0,0
21.01.2018 07:00:00 6,7 4,5 64 35 97 52 NW -
21.01.2018 06:00:00 6,9 4,3 54 29 89 48 NW 0,0
21.01.2018 05:00:00 7,1 4,1 58 32 84 45 NW 0,0
21.01.2018 04:00:00 7,2 3,6 45 25 82 44 NW 0,0
21.01.2018 03:00:00 7,3 3,0 51 28 81 44 NW 0,0
21.01.2018 02:00:00 7,4 1,9 56 30 85 46 NW 0,0
21.01.2018 01:00:00 - - - - - - - -
21.01.2018 00:00:00 8,0 0,6 56 31 106 58 NW 0,0
20.01.2018 23:00:00 8,4 -0,7 54 29 88 48 NW 0,0
20.01.2018 22:00:00 8,8 -3,3 50 27 79 43 NW 0,0
20.01.2018 21:00:00 8,9 -5,4 38 20 63 34 NW 0,0
20.01.2018 20:00:00 8,2 -6,7 36 20 68 37 WNW 0,0
20.01.2018 19:00:00 7,4 -7,8 32 17 59 32 WNW -
20.01.2018 18:00:00 6,4 -7,5 28 15 57 31 WNW 0,0
20.01.2018 17:00:00 6,8 -6,7 27 15 52 28 WNW 0,0
20.01.2018 16:00:00 7,5 -5,7 29 16 50 27 NW 0,0
20.01.2018 15:00:00 7,6 -4,5 24 13 52 28 WNW 0,0
20.01.2018 14:00:00 6,6 -1,7 30 16 55 30 NW 0,0
20.01.2018 13:00:00 6,1 -1,7 31 17 55 30 NW -
20.01.2018 12:00:00 5,2 3,4 17 9 31 17 NW 0,0
20.01.2018 11:00:00 4,8 3,0 15 8 27 14 NW 0,0
20.01.2018 10:00:00 5,3 3,4 10 5 18 10 NW 0,0
20.01.2018 09:00:00 4,3 2,5 3 2 21 11 W 0,0
20.01.2018 08:00:00 4,6 2,9 17 9 29 16 NNW 0,0
20.01.2018 07:00:00 5,1 3,2 17 9 32 17 NNW -
20.01.2018 06:00:00 4,7 2,9 10 5 36 19 N 0,0
20.01.2018 05:00:00 5,2 3,4 23 12 38 20 NNW 0,0
20.01.2018 04:00:00 5,4 3,6 20 11 34 18 NNW 0,0
20.01.2018 03:00:00 5,3 3,4 22 12 29 16 NNW 0,0
20.01.2018 02:00:00 4,8 2,7 17 9 26 14 NNW 0,0
20.01.2018 01:00:00 - - - - - - - -
20.01.2018 00:00:00 4,7 1,5 14 7 28 15 WNW 0,0
19.01.2018 23:00:00 4,8 2,3 20 11 32 17 NW 0,0
19.01.2018 22:00:00 4,6 1,9 24 13 42 23 NNW 0,0
19.01.2018 21:00:00 4,3 1,5 34 18 41 22 NNW 0,0
19.01.2018 20:00:00 4,3 1,9 26 14 35 19 NNW 0,0
19.01.2018 19:00:00 4,5 1,7 29 15 38 20 NNW -
19.01.2018 18:00:00 4,6 1,7 24 13 32 17 NW 0,0
19.01.2018 17:00:00 5,1 2,1 21 11 32 17 NNW 0,0
19.01.2018 16:00:00 5,5 1,9 17 9 37 20 NW 0,0
19.01.2018 15:00:00 5,0 2,1 25 14 45 24 NNW 0,0
19.01.2018 14:00:00 5,3 0,9 32 17 44 24 NNW 0,0
19.01.2018 13:00:00 6,1 2,3 17 9 36 19 NW -
19.01.2018 12:00:00 5,9 3,8 13 7 27 15 NW 0,0
19.01.2018 11:00:00 5,2 3,4 21 11 34 19 NNW 0,0
19.01.2018 10:00:00 4,3 2,3 18 10 31 17 NNW 0,0
19.01.2018 09:00:00 4,0 1,9 22 12 27 14 NNW 0,0
19.01.2018 08:00:00 4,7 -4,5 14 8 24 13 NNW 0,0
19.01.2018 07:00:00 5,4 -5,1 14 8 25 13 NW -
19.01.2018 06:00:00 5,7 -3,9 7 4 12 7 N 0,0
19.01.2018 05:00:00 5,1 -2,7 2 1 13 7 E 0,0
19.01.2018 04:00:00 5,4 -4,2 11 6 25 13 NE 0,0
19.01.2018 03:00:00 4,9 -1,0 17 9 27 15 N 0,0
19.01.2018 02:00:00 5,3 -2,7 18 10 28 15 N 0,0
19.01.2018 01:00:00 5,3 -3,6 22 12 37 20 NNW -
19.01.2018 00:00:00 4,4 0,0 21 12 28 15 NNW 0,0
18.01.2018 23:00:00 3,2 1,5 16 9 24 13 NW 0,0
18.01.2018 22:00:00 4,2 2,5 8 5 20 11 WSW 0,0
18.01.2018 21:00:00 4,4 2,7 10 6 19 11 SSW 0,0
18.01.2018 20:00:00 4,5 2,7 11 6 16 9 S 0,0
18.01.2018 19:00:00 4,7 2,9 10 5 19 10 SSW -
18.01.2018 18:00:00 4,3 2,5 9 5 21 11 NW 0,0
18.01.2018 17:00:00 5,2 3,4 11 6 21 11 S 0,0
18.01.2018 16:00:00 5,4 3,6 5 3 19 11 S 0,0
18.01.2018 15:00:00 5,6 3,8 13 7 22 12 S 0,0
18.01.2018 14:00:00 5,5 3,6 10 5 20 11 SSW 0,0
18.01.2018 13:00:00 5,3 3,4 8 5 24 13 SSW -
18.01.2018 12:00:00 5,6 3,8 11 6 19 10 S 0,0
18.01.2018 11:00:00 5,0 3,2 12 6 19 11 S 0,0
18.01.2018 10:00:00 4,4 2,7 11 6 16 9 SSW 0,0
18.01.2018 09:00:00 4,0 2,3 10 5 19 11 S 0,0
18.01.2018 08:00:00 4,3 2,5 12 6 19 11 S 0,0
18.01.2018 07:00:00 4,2 2,5 13 7 29 16 S -
18.01.2018 06:00:00 4,5 2,7 16 9 27 15 S 0,0
18.01.2018 05:00:00 4,4 2,7 16 9 26 14 S 0,1
18.01.2018 04:00:00 4,2 2,5 17 9 24 13 S 0,0
18.01.2018 03:00:00 4,3 2,5 17 9 25 14 S 0,0
18.01.2018 02:00:00 4,3 2,5 22 12 28 15 SSE 0,0
18.01.2018 01:00:00 4,3 2,5 20 11 29 16 SSE -
18.01.2018 00:00:00 4,3 2,5 24 13 31 17 SE 0,0
17.01.2018 23:00:00 4,4 2,7 19 10 26 14 SE 0,0
17.01.2018 22:00:00 4,5 2,7 21 11 29 16 SSE 0,0
17.01.2018 21:00:00 4,6 2,9 22 12 32 17 SSE 0,0
17.01.2018 20:00:00 4,0 0,4 20 11 25 14 SSE 0,0
17.01.2018 19:00:00 4,6 1,7 5 3 23 12 NNW -
17.01.2018 18:00:00 4,7 1,3 17 9 49 26 NW 0,0
17.01.2018 17:00:00 5,5 0,6 36 19 60 32 NW 0,0
17.01.2018 16:00:00 6,2 0,4 49 26 66 36 NW 0,0
17.01.2018 15:00:00 6,9 0,0 54 29 77 42 NW 0,0
17.01.2018 14:00:00 7,3 0,6 51 28 98 53 NW 0,0
17.01.2018 13:00:00 7,2 0,9 58 31 113 61 NW -
17.01.2018 12:00:00 7,4 0,9 71 39 111 60 NW 0,0
17.01.2018 11:00:00 7,3 0,2 63 34 116 62 NW 0,0
17.01.2018 10:00:00 7,8 0,4 66 36 108 58 NW 0,0
17.01.2018 09:00:00 7,4 1,3 65 35 94 51 NNW 0,0
17.01.2018 08:00:00 7,3 0,6 66 36 104 56 NW 0,0

tt = Température de l'air
td = dewpoint
ff = Vitesse du vent
fx = gusts
dd = Direction du vent
rr = Quantités de précipitations

stations d'obs. à proximité